NOZ1308 ENGM-EGKK
Flight info
| Callsign | NOZ1308 |
|---|---|
| Flight time | N/A |
| Altitude | 38000 |
| Route | VIPPA6D VIPPA DCT ELKOP DCT AMSEV DCT UPGAS DCT TIPAN DCT WECOW DCT BINBO DCT AKOKO N866 BUKUT P7 BARMI BARMI1G |
| Aircraft | B38M/M-SDE1FGHILORVWXY/HB1 |
Departure
| Time | 2026-05-01 13:44 |
|---|---|
| Airport | Oslo-Gardermoen International Airport (ENGM) |
Arrival
| Time | N/A |
|---|---|
| Airport | London Gatwick Airport (EGKK) |
| Time | Latitude | Longitude | Altitude | Speed | Heading |
|---|---|---|---|---|---|
| 2026-05-01 13:21 | 60.19408 | 11.10551 | 682 ft | 0 kts | 196° |
| 2026-05-01 13:32 | 60.19412 | 11.10554 | 687 ft | 3 kts | 196° |
| 2026-05-01 13:33 | 60.19485 | 11.10617 | 679 ft | 4 kts | 219° |
| 2026-05-01 13:33 | 60.19500 | 11.10669 | 679 ft | 1 kts | 286° |
| 2026-05-01 13:36 | 60.19500 | 11.10667 | 679 ft | 1 kts | 286° |
| 2026-05-01 13:36 | 60.19531 | 11.10539 | 683 ft | 11 kts | 332° |
| 2026-05-01 13:37 | 60.19612 | 11.10567 | 685 ft | 12 kts | 15° |
| 2026-05-01 13:37 | 60.19701 | 11.10618 | 685 ft | 14 kts | 16° |
| 2026-05-01 13:37 | 60.19807 | 11.10680 | 685 ft | 17 kts | 16° |
| 2026-05-01 13:37 | 60.19912 | 11.10736 | 684 ft | 13 kts | 2° |
| 2026-05-01 13:38 | 60.19991 | 11.10398 | 686 ft | 16 kts | 286° |
| 2026-05-01 13:38 | 60.20023 | 11.10170 | 688 ft | 18 kts | 286° |
| 2026-05-01 13:38 | 60.20059 | 11.09919 | 684 ft | 20 kts | 286° |
| 2026-05-01 13:39 | 60.20100 | 11.09637 | 680 ft | 22 kts | 286° |
| 2026-05-01 13:39 | 60.20145 | 11.09323 | 681 ft | 25 kts | 286° |
| 2026-05-01 13:39 | 60.20189 | 11.09020 | 677 ft | 18 kts | 287° |
| 2026-05-01 13:39 | 60.20279 | 11.08963 | 681 ft | 16 kts | 17° |
| 2026-05-01 13:40 | 60.20399 | 11.09034 | 684 ft | 20 kts | 16° |
| 2026-05-01 13:40 | 60.20547 | 11.09118 | 685 ft | 23 kts | 16° |
| 2026-05-01 13:40 | 60.20705 | 11.09211 | 682 ft | 24 kts | 16° |
| 2026-05-01 13:40 | 60.20869 | 11.09304 | 687 ft | 25 kts | 16° |
| 2026-05-01 13:41 | 60.21036 | 11.09401 | 684 ft | 25 kts | 16° |
| 2026-05-01 13:41 | 60.21193 | 11.09491 | 685 ft | 24 kts | 16° |
| 2026-05-01 13:41 | 60.21354 | 11.09584 | 689 ft | 23 kts | 16° |
| 2026-05-01 13:41 | 60.21498 | 11.09629 | 687 ft | 21 kts | 339° |
| 2026-05-01 13:42 | 60.21551 | 11.09477 | 683 ft | 13 kts | 285° |
| 2026-05-01 13:42 | 60.21560 | 11.09414 | 685 ft | 0 kts | 286° |
| 2026-05-01 13:43 | 60.21566 | 11.09373 | 682 ft | 7 kts | 286° |
| 2026-05-01 13:43 | 60.21587 | 11.09218 | 684 ft | 13 kts | 284° |
| 2026-05-01 13:43 | 60.21559 | 11.09138 | 683 ft | 0 kts | 196° |
| 2026-05-01 13:44 | 60.21505 | 11.09106 | 686 ft | 37 kts | 196° |
| 2026-05-01 13:44 | 60.20969 | 11.08798 | 681 ft | 120 kts | 196° |
| 2026-05-01 13:44 | 60.19952 | 11.08224 | 745 ft | 180 kts | 196° |
| 2026-05-01 13:44 | 60.18744 | 11.07505 | 1811 ft | 181 kts | 198° |
| 2026-05-01 13:45 | 60.17488 | 11.06738 | 2651 ft | 203 kts | 200° |
| 2026-05-01 13:45 | 60.16229 | 11.05256 | 3407 ft | 217 kts | 230° |
| 2026-05-01 13:45 | 60.15545 | 11.02502 | 4387 ft | 227 kts | 251° |
| 2026-05-01 13:45 | 60.14969 | 10.99453 | 5254 ft | 241 kts | 248° |
| 2026-05-01 13:46 | 60.14239 | 10.96365 | 6294 ft | 247 kts | 237° |
| 2026-05-01 13:46 | 60.12993 | 10.93996 | 7452 ft | 251 kts | 221° |
| 2026-05-01 13:46 | 60.11586 | 10.91862 | 8463 ft | 256 kts | 221° |
| 2026-05-01 13:46 | 60.10156 | 10.89727 | 9559 ft | 257 kts | 221° |
| 2026-05-01 13:47 | 60.08702 | 10.87593 | 10530 ft | 262 kts | 221° |
| 2026-05-01 13:47 | 60.07176 | 10.85375 | 11046 ft | 281 kts | 220° |
| 2026-05-01 13:47 | 60.05543 | 10.83024 | 11598 ft | 296 kts | 220° |
| 2026-05-01 13:47 | 60.03840 | 10.80587 | 12339 ft | 304 kts | 220° |
| 2026-05-01 13:48 | 60.02113 | 10.78127 | 13223 ft | 306 kts | 220° |
| 2026-05-01 13:48 | 60.00373 | 10.75650 | 14093 ft | 308 kts | 220° |
| 2026-05-01 13:48 | 59.98617 | 10.73154 | 14854 ft | 311 kts | 220° |
| 2026-05-01 13:48 | 59.96839 | 10.70632 | 15548 ft | 316 kts | 220° |
| 2026-05-01 13:49 | 59.95034 | 10.68077 | 16274 ft | 319 kts | 220° |
| 2026-05-01 13:49 | 59.93215 | 10.65503 | 16980 ft | 323 kts | 220° |
| 2026-05-01 13:49 | 59.91371 | 10.62899 | 17690 ft | 326 kts | 220° |
| 2026-05-01 13:49 | 59.89511 | 10.60276 | 18385 ft | 330 kts | 220° |
| 2026-05-01 13:50 | 59.87623 | 10.57618 | 18944 ft | 335 kts | 220° |
| 2026-05-01 13:50 | 59.85704 | 10.54920 | 19504 ft | 339 kts | 220° |
| 2026-05-01 13:50 | 59.83800 | 10.52245 | 20068 ft | 342 kts | 219° |
| 2026-05-01 13:50 | 59.81844 | 10.49502 | 20635 ft | 345 kts | 219° |
| 2026-05-01 13:51 | 59.79871 | 10.46740 | 21183 ft | 349 kts | 219° |
| 2026-05-01 13:51 | 59.77877 | 10.43950 | 21734 ft | 352 kts | 219° |
| 2026-05-01 13:51 | 59.75865 | 10.41141 | 22234 ft | 356 kts | 219° |
| 2026-05-01 13:51 | 59.73828 | 10.38301 | 22793 ft | 359 kts | 219° |
| 2026-05-01 13:52 | 59.71776 | 10.35445 | 23327 ft | 363 kts | 219° |
| 2026-05-01 13:52 | 59.69698 | 10.32556 | 23803 ft | 367 kts | 219° |
| 2026-05-01 13:52 | 59.67599 | 10.29642 | 24240 ft | 369 kts | 219° |
| 2026-05-01 13:52 | 59.65489 | 10.26720 | 24692 ft | 371 kts | 219° |
| 2026-05-01 13:53 | 59.63364 | 10.23780 | 25122 ft | 374 kts | 219° |
| 2026-05-01 13:53 | 59.59064 | 10.17846 | 25976 ft | 379 kts | 219° |
| 2026-05-01 13:53 | 59.56894 | 10.14857 | 26385 ft | 382 kts | 219° |
| 2026-05-01 13:54 | 59.54709 | 10.11854 | 26805 ft | 384 kts | 219° |
| 2026-05-01 13:54 | 59.52508 | 10.08834 | 27217 ft | 387 kts | 219° |
| 2026-05-01 13:54 | 59.50293 | 10.05797 | 27614 ft | 389 kts | 218° |
| 2026-05-01 13:54 | 59.48060 | 10.02746 | 27943 ft | 393 kts | 218° |
| 2026-05-01 13:55 | 59.45807 | 9.99667 | 28294 ft | 396 kts | 218° |
| 2026-05-01 13:55 | 59.43538 | 9.96573 | 28697 ft | 398 kts | 218° |
| 2026-05-01 13:55 | 59.41258 | 9.93470 | 29056 ft | 401 kts | 218° |
| 2026-05-01 13:55 | 59.38956 | 9.90342 | 29408 ft | 403 kts | 218° |
| 2026-05-01 13:56 | 59.36645 | 9.87207 | 29740 ft | 406 kts | 218° |
| 2026-05-01 13:56 | 59.34315 | 9.84051 | 30112 ft | 408 kts | 218° |
| 2026-05-01 13:56 | 59.31975 | 9.80888 | 30430 ft | 410 kts | 218° |
| 2026-05-01 13:56 | 59.29617 | 9.77706 | 30736 ft | 412 kts | 218° |
| 2026-05-01 13:57 | 59.27249 | 9.74515 | 31052 ft | 414 kts | 218° |
| 2026-05-01 13:57 | 59.25677 | 9.72400 | 31275 ft | 415 kts | 218° |
| 2026-05-01 13:57 | 59.22489 | 9.68117 | 31664 ft | 417 kts | 218° |
| 2026-05-01 13:57 | 59.20114 | 9.64935 | 31923 ft | 420 kts | 217° |
| 2026-05-01 13:58 | 59.17706 | 9.61714 | 32314 ft | 419 kts | 217° |
| 2026-05-01 13:58 | 59.15293 | 9.58490 | 32624 ft | 421 kts | 217° |
| 2026-05-01 13:58 | 59.12879 | 9.55271 | 33018 ft | 420 kts | 217° |
| 2026-05-01 13:58 | 59.10474 | 9.52070 | 33447 ft | 418 kts | 217° |
| 2026-05-01 13:59 | 59.08075 | 9.48883 | 33859 ft | 417 kts | 217° |
| 2026-05-01 13:59 | 59.05689 | 9.45717 | 34261 ft | 415 kts | 218° |
| 2026-05-01 13:59 | 59.03304 | 9.42559 | 34570 ft | 415 kts | 217° |
| 2026-05-01 13:59 | 59.00923 | 9.39411 | 34873 ft | 414 kts | 217° |
| 2026-05-01 14:00 | 58.98537 | 9.36263 | 35161 ft | 414 kts | 218° |
| 2026-05-01 14:00 | 58.96154 | 9.33123 | 35406 ft | 415 kts | 217° |
| 2026-05-01 14:00 | 58.93762 | 9.29978 | 35617 ft | 416 kts | 217° |
| 2026-05-01 14:00 | 58.91363 | 9.26827 | 35897 ft | 416 kts | 217° |
| 2026-05-01 14:01 | 58.88967 | 9.23686 | 36164 ft | 416 kts | 217° |
| 2026-05-01 14:01 | 58.86568 | 9.20547 | 36401 ft | 417 kts | 217° |
| 2026-05-01 14:01 | 58.84171 | 9.17415 | 36651 ft | 416 kts | 217° |
| 2026-05-01 14:01 | 58.81772 | 9.14288 | 36926 ft | 416 kts | 217° |
| 2026-05-01 14:02 | 58.80183 | 9.12217 | 37064 ft | 416 kts | 217° |
| 2026-05-01 14:02 | 58.77786 | 9.09101 | 37318 ft | 416 kts | 217° |
| 2026-05-01 14:02 | 58.75386 | 9.05986 | 37515 ft | 416 kts | 217° |
| 2026-05-01 14:02 | 58.72988 | 9.02877 | 37720 ft | 416 kts | 217° |
| 2026-05-01 14:03 | 58.70590 | 8.99775 | 37935 ft | 415 kts | 217° |
| 2026-05-01 14:03 | 58.68189 | 8.96674 | 38104 ft | 416 kts | 217° |
| 2026-05-01 14:03 | 58.65781 | 8.93568 | 38243 ft | 417 kts | 217° |
| 2026-05-01 14:03 | 58.63372 | 8.90467 | 38249 ft | 417 kts | 217° |
| 2026-05-01 14:04 | 58.58566 | 8.84296 | 38238 ft | 415 kts | 217° |
| 2026-05-01 14:04 | 58.53760 | 8.78146 | 38235 ft | 416 kts | 217° |
| 2026-05-01 14:05 | 58.48952 | 8.72014 | 38237 ft | 414 kts | 217° |
| 2026-05-01 14:05 | 58.44165 | 8.65929 | 38251 ft | 414 kts | 217° |
| 2026-05-01 14:06 | 58.39368 | 8.59851 | 38260 ft | 414 kts | 217° |
| 2026-05-01 14:06 | 58.34571 | 8.53793 | 38264 ft | 414 kts | 217° |
| 2026-05-01 14:07 | 58.29770 | 8.47751 | 38270 ft | 414 kts | 217° |
| 2026-05-01 14:08 | 58.22562 | 8.38716 | 38288 ft | 414 kts | 217° |
| 2026-05-01 14:08 | 58.17786 | 8.32755 | 38284 ft | 414 kts | 216° |
| 2026-05-01 14:09 | 58.12968 | 8.26760 | 38289 ft | 414 kts | 216° |
| 2026-05-01 14:09 | 58.08148 | 8.20782 | 38292 ft | 414 kts | 216° |
| 2026-05-01 14:10 | 58.03325 | 8.14821 | 38290 ft | 414 kts | 216° |
| 2026-05-01 14:10 | 57.98498 | 8.08874 | 38294 ft | 414 kts | 216° |
| 2026-05-01 14:11 | 57.93668 | 8.02943 | 38279 ft | 414 kts | 216° |
| 2026-05-01 14:11 | 57.86423 | 7.94082 | 38297 ft | 414 kts | 216° |
| 2026-05-01 14:12 | 57.81594 | 7.88200 | 38298 ft | 413 kts | 216° |
| 2026-05-01 14:12 | 57.76772 | 7.82346 | 38298 ft | 413 kts | 216° |
| 2026-05-01 14:13 | 57.71948 | 7.76509 | 38300 ft | 413 kts | 216° |
| 2026-05-01 14:13 | 57.67119 | 7.70684 | 38290 ft | 413 kts | 216° |
| 2026-05-01 14:14 | 57.62278 | 7.64862 | 38298 ft | 414 kts | 215° |
| 2026-05-01 14:14 | 57.57429 | 7.59051 | 38298 ft | 414 kts | 215° |
| 2026-05-01 14:15 | 57.52579 | 7.53257 | 38298 ft | 414 kts | 215° |
| 2026-05-01 14:15 | 57.47726 | 7.47478 | 38298 ft | 414 kts | 215° |
| 2026-05-01 14:16 | 57.42871 | 7.41713 | 38279 ft | 414 kts | 215° |
| 2026-05-01 14:16 | 57.38011 | 7.35963 | 38302 ft | 415 kts | 215° |
| 2026-05-01 14:17 | 57.33140 | 7.30218 | 38304 ft | 415 kts | 215° |
| 2026-05-01 14:17 | 57.28297 | 7.24523 | 38296 ft | 415 kts | 215° |
| 2026-05-01 14:18 | 57.23422 | 7.18810 | 38303 ft | 415 kts | 215° |
| 2026-05-01 14:18 | 57.19335 | 7.14034 | 38296 ft | 415 kts | 215° |
| 2026-05-01 14:19 | 57.13659 | 7.07422 | 38295 ft | 415 kts | 214° |
| 2026-05-01 14:19 | 57.08780 | 7.01757 | 38295 ft | 415 kts | 214° |
| 2026-05-01 14:20 | 57.01451 | 6.93283 | 38294 ft | 415 kts | 214° |
| 2026-05-01 14:21 | 56.96564 | 6.87653 | 38292 ft | 415 kts | 214° |
| 2026-05-01 14:21 | 56.91672 | 6.82036 | 38277 ft | 415 kts | 214° |
| 2026-05-01 14:22 | 56.84315 | 6.73621 | 38288 ft | 416 kts | 214° |
| 2026-05-01 14:22 | 56.79405 | 6.68027 | 38289 ft | 416 kts | 214° |
| 2026-05-01 14:23 | 56.74494 | 6.62450 | 38289 ft | 416 kts | 214° |
| 2026-05-01 14:23 | 56.69577 | 6.56883 | 38289 ft | 416 kts | 214° |
| 2026-05-01 14:24 | 56.64658 | 6.51333 | 38275 ft | 417 kts | 213° |
| 2026-05-01 14:24 | 56.59713 | 6.45767 | 38287 ft | 418 kts | 213° |
| 2026-05-01 14:25 | 56.54800 | 6.40257 | 38287 ft | 418 kts | 213° |
| 2026-05-01 14:25 | 56.49850 | 6.34721 | 38296 ft | 418 kts | 213° |
| 2026-05-01 14:26 | 56.42452 | 6.26482 | 38288 ft | 416 kts | 213° |
| 2026-05-01 14:27 | 56.37512 | 6.21001 | 38281 ft | 418 kts | 213° |
| 2026-05-01 14:27 | 56.32552 | 6.15514 | 38278 ft | 418 kts | 213° |
| 2026-05-01 14:28 | 56.25111 | 6.07315 | 38282 ft | 418 kts | 213° |
| 2026-05-01 14:28 | 56.20151 | 6.01871 | 38282 ft | 418 kts | 213° |
| 2026-05-01 14:29 | 56.15183 | 5.96436 | 38270 ft | 418 kts | 212° |
| 2026-05-01 14:30 | 56.05228 | 5.85591 | 38276 ft | 419 kts | 212° |
| 2026-05-01 14:31 | 55.97754 | 5.77493 | 38279 ft | 419 kts | 212° |
| 2026-05-01 14:31 | 55.92768 | 5.72112 | 38277 ft | 419 kts | 212° |
| 2026-05-01 14:32 | 55.87775 | 5.66739 | 38273 ft | 419 kts | 212° |
| 2026-05-01 14:32 | 55.82786 | 5.61387 | 38277 ft | 419 kts | 212° |
| 2026-05-01 14:33 | 55.77806 | 5.56060 | 38268 ft | 417 kts | 212° |
| 2026-05-01 14:33 | 55.72832 | 5.50756 | 38271 ft | 417 kts | 212° |
| 2026-05-01 14:34 | 55.67859 | 5.45465 | 38271 ft | 417 kts | 212° |
| 2026-05-01 14:34 | 55.62888 | 5.40193 | 38267 ft | 418 kts | 212° |
| 2026-05-01 14:35 | 55.57897 | 5.34914 | 38269 ft | 418 kts | 212° |
| 2026-05-01 14:35 | 55.52899 | 5.29643 | 38269 ft | 418 kts | 212° |
| 2026-05-01 14:36 | 55.47902 | 5.24388 | 38267 ft | 418 kts | 212° |
| 2026-05-01 14:36 | 55.42898 | 5.19143 | 38269 ft | 418 kts | 212° |
| 2026-05-01 14:37 | 55.37891 | 5.13910 | 38270 ft | 419 kts | 211° |
| 2026-05-01 14:37 | 55.32908 | 5.08716 | 38258 ft | 419 kts | 211° |
| 2026-05-01 14:38 | 55.27891 | 5.03502 | 38256 ft | 419 kts | 211° |
| 2026-05-01 14:38 | 55.22809 | 4.98494 | 38270 ft | 419 kts | 209° |
| 2026-05-01 14:39 | 55.17659 | 4.93676 | 38254 ft | 419 kts | 209° |
| 2026-05-01 14:39 | 55.12520 | 4.88837 | 38256 ft | 420 kts | 209° |
| 2026-05-01 14:40 | 55.07365 | 4.83993 | 38259 ft | 421 kts | 209° |
| 2026-05-01 14:40 | 55.02206 | 4.79159 | 38260 ft | 421 kts | 209° |
| 2026-05-01 14:41 | 54.97045 | 4.74338 | 38267 ft | 421 kts | 209° |
| 2026-05-01 14:41 | 54.91886 | 4.69532 | 38260 ft | 421 kts | 209° |
| 2026-05-01 14:42 | 54.86719 | 4.64732 | 38270 ft | 422 kts | 209° |
| 2026-05-01 14:42 | 54.81539 | 4.59935 | 38263 ft | 422 kts | 209° |
| 2026-05-01 14:43 | 54.76359 | 4.55152 | 38266 ft | 422 kts | 209° |
| 2026-05-01 14:43 | 54.71179 | 4.50383 | 38265 ft | 422 kts | 208° |
| 2026-05-01 14:44 | 54.65999 | 4.45628 | 38246 ft | 422 kts | 208° |
| 2026-05-01 14:44 | 54.58213 | 4.38506 | 38255 ft | 422 kts | 208° |
| 2026-05-01 14:45 | 54.50418 | 4.31407 | 38259 ft | 423 kts | 208° |
| 2026-05-01 14:46 | 54.45223 | 4.26694 | 38252 ft | 422 kts | 208° |
| 2026-05-01 14:46 | 54.37465 | 4.19678 | 38247 ft | 420 kts | 208° |
| 2026-05-01 14:47 | 54.32294 | 4.15020 | 38247 ft | 420 kts | 208° |
| 2026-05-01 14:48 | 54.24527 | 4.08047 | 38239 ft | 420 kts | 208° |
| 2026-05-01 14:48 | 54.17634 | 4.01884 | 38234 ft | 420 kts | 208° |
| 2026-05-01 14:49 | 54.07261 | 3.92654 | 38229 ft | 421 kts | 208° |
| 2026-05-01 14:50 | 53.96895 | 3.83482 | 38233 ft | 420 kts | 208° |
| 2026-05-01 14:51 | 53.89102 | 3.76622 | 38229 ft | 421 kts | 207° |
| 2026-05-01 14:52 | 53.81302 | 3.69783 | 38235 ft | 421 kts | 207° |
| 2026-05-01 14:53 | 53.73523 | 3.62992 | 38244 ft | 420 kts | 207° |
| 2026-05-01 14:53 | 53.68336 | 3.58480 | 38238 ft | 419 kts | 207° |
| 2026-05-01 14:54 | 53.63148 | 3.53978 | 38240 ft | 420 kts | 207° |
| 2026-05-01 14:54 | 53.57954 | 3.49484 | 38238 ft | 420 kts | 207° |
| 2026-05-01 14:55 | 53.52759 | 3.45003 | 38237 ft | 420 kts | 207° |
| 2026-05-01 14:55 | 53.47560 | 3.40529 | 38232 ft | 420 kts | 207° |
| 2026-05-01 14:56 | 53.42360 | 3.36068 | 38238 ft | 420 kts | 207° |
| 2026-05-01 14:56 | 53.37158 | 3.31617 | 38230 ft | 420 kts | 207° |
| 2026-05-01 14:57 | 53.31953 | 3.27176 | 38222 ft | 420 kts | 207° |
| 2026-05-01 14:57 | 53.24149 | 3.20539 | 38220 ft | 420 kts | 207° |
| 2026-05-01 14:58 | 53.18939 | 3.16125 | 38217 ft | 420 kts | 207° |
| 2026-05-01 14:58 | 53.13721 | 3.11715 | 38216 ft | 421 kts | 206° |
| 2026-05-01 14:59 | 53.11132 | 3.09531 | 37841 ft | 414 kts | 206° |
| 2026-05-01 14:59 | 53.08579 | 3.07381 | 37449 ft | 408 kts | 206° |
| 2026-05-01 14:59 | 53.06071 | 3.05272 | 37069 ft | 401 kts | 206° |
| 2026-05-01 14:59 | 53.03594 | 3.03192 | 36616 ft | 397 kts | 206° |
| 2026-05-01 15:00 | 52.98695 | 2.99084 | 35602 ft | 392 kts | 206° |
| 2026-05-01 15:00 | 52.96268 | 2.97053 | 35117 ft | 390 kts | 206° |
| 2026-05-01 15:00 | 52.93859 | 2.95040 | 34664 ft | 387 kts | 206° |
| 2026-05-01 15:01 | 52.91460 | 2.93037 | 34196 ft | 385 kts | 206° |
| 2026-05-01 15:01 | 52.89073 | 2.91048 | 33670 ft | 383 kts | 206° |
| 2026-05-01 15:01 | 52.86705 | 2.89076 | 33187 ft | 380 kts | 206° |
| 2026-05-01 15:01 | 52.84353 | 2.87120 | 32740 ft | 376 kts | 206° |
| 2026-05-01 15:02 | 52.82051 | 2.85208 | 32306 ft | 373 kts | 206° |
| 2026-05-01 15:02 | 52.80489 | 2.83912 | 32016 ft | 371 kts | 206° |
| 2026-05-01 15:02 | 52.77450 | 2.81393 | 31442 ft | 367 kts | 206° |
| 2026-05-01 15:02 | 52.75177 | 2.79512 | 31023 ft | 364 kts | 206° |
| 2026-05-01 15:03 | 52.72927 | 2.77651 | 30615 ft | 361 kts | 206° |
| 2026-05-01 15:03 | 52.70687 | 2.75800 | 30197 ft | 359 kts | 206° |
| 2026-05-01 15:03 | 52.68460 | 2.73963 | 29712 ft | 356 kts | 205° |
| 2026-05-01 15:03 | 52.66259 | 2.72149 | 29326 ft | 352 kts | 205° |
| 2026-05-01 15:04 | 52.64079 | 2.70354 | 28935 ft | 348 kts | 205° |
| 2026-05-01 15:04 | 52.61923 | 2.68580 | 28554 ft | 344 kts | 205° |
| 2026-05-01 15:04 | 52.59792 | 2.66829 | 28188 ft | 341 kts | 205° |
| 2026-05-01 15:04 | 52.57685 | 2.65100 | 27821 ft | 337 kts | 205° |
| 2026-05-01 15:05 | 52.55596 | 2.63387 | 27460 ft | 334 kts | 205° |
| 2026-05-01 15:05 | 52.53530 | 2.61695 | 27106 ft | 330 kts | 205° |
| 2026-05-01 15:05 | 52.51480 | 2.60018 | 26756 ft | 327 kts | 205° |
| 2026-05-01 15:05 | 52.49438 | 2.58349 | 26408 ft | 330 kts | 205° |
| 2026-05-01 15:06 | 52.47373 | 2.56671 | 26165 ft | 333 kts | 204° |
| 2026-05-01 15:06 | 52.45277 | 2.54968 | 26052 ft | 338 kts | 205° |
| 2026-05-01 15:06 | 52.43167 | 2.53254 | 25960 ft | 339 kts | 204° |
| 2026-05-01 15:06 | 52.41058 | 2.51540 | 25863 ft | 339 kts | 204° |
| 2026-05-01 15:07 | 52.38949 | 2.49828 | 25763 ft | 338 kts | 204° |
| 2026-05-01 15:07 | 52.36842 | 2.48119 | 25653 ft | 337 kts | 204° |
| 2026-05-01 15:07 | 52.34745 | 2.46422 | 25565 ft | 335 kts | 204° |
| 2026-05-01 15:07 | 52.32661 | 2.44734 | 25454 ft | 333 kts | 204° |
| 2026-05-01 15:08 | 52.30585 | 2.43056 | 25345 ft | 332 kts | 204° |
| 2026-05-01 15:08 | 52.28518 | 2.41386 | 25250 ft | 331 kts | 204° |
| 2026-05-01 15:08 | 52.26451 | 2.39719 | 25150 ft | 331 kts | 204° |
| 2026-05-01 15:08 | 52.24386 | 2.38056 | 25047 ft | 331 kts | 204° |
| 2026-05-01 15:09 | 52.22325 | 2.36396 | 24946 ft | 331 kts | 204° |
| 2026-05-01 15:09 | 52.20261 | 2.34736 | 24843 ft | 330 kts | 204° |
| 2026-05-01 15:09 | 52.18204 | 2.33083 | 24744 ft | 330 kts | 204° |
| 2026-05-01 15:09 | 52.16144 | 2.31430 | 24641 ft | 329 kts | 204° |
| 2026-05-01 15:10 | 52.14093 | 2.29786 | 24541 ft | 329 kts | 204° |
| 2026-05-01 15:10 | 52.09993 | 2.26503 | 24326 ft | 328 kts | 204° |
| 2026-05-01 15:10 | 52.07952 | 2.24872 | 24227 ft | 327 kts | 203° |
| 2026-05-01 15:11 | 52.05909 | 2.23241 | 24135 ft | 327 kts | 203° |
| 2026-05-01 15:11 | 52.01837 | 2.19995 | 23935 ft | 326 kts | 203° |
| 2026-05-01 15:11 | 51.99832 | 2.18399 | 23838 ft | 325 kts | 203° |
| 2026-05-01 15:12 | 51.97799 | 2.16782 | 23730 ft | 325 kts | 203° |
| 2026-05-01 15:12 | 51.93744 | 2.13562 | 23524 ft | 324 kts | 203° |
| 2026-05-01 15:12 | 51.91719 | 2.11958 | 23430 ft | 324 kts | 203° |
| 2026-05-01 15:13 | 51.85656 | 2.07161 | 23161 ft | 323 kts | 203° |
| 2026-05-01 15:14 | 51.81638 | 2.03990 | 23001 ft | 322 kts | 203° |
| 2026-05-01 15:14 | 51.79631 | 2.02408 | 22906 ft | 322 kts | 203° |
| 2026-05-01 15:14 | 51.75604 | 1.99239 | 22756 ft | 322 kts | 203° |
| 2026-05-01 15:15 | 51.71578 | 1.96078 | 22586 ft | 321 kts | 203° |
| 2026-05-01 15:15 | 51.67561 | 1.92929 | 22361 ft | 321 kts | 203° |
| 2026-05-01 15:16 | 51.64011 | 1.88735 | 21799 ft | 319 kts | 221° |
| 2026-05-01 15:16 | 51.60899 | 1.83642 | 21334 ft | 319 kts | 221° |
| 2026-05-01 15:17 | 51.57818 | 1.78532 | 20843 ft | 317 kts | 222° |
| 2026-05-01 15:18 | 51.53266 | 1.70960 | 20115 ft | 314 kts | 222° |
| 2026-05-01 15:18 | 51.51751 | 1.68441 | 19871 ft | 313 kts | 222° |
| 2026-05-01 15:19 | 51.47275 | 1.61016 | 19369 ft | 297 kts | 221° |
| 2026-05-01 15:19 | 51.44446 | 1.56337 | 19258 ft | 299 kts | 222° |
| 2026-05-01 15:19 | 51.42984 | 1.53921 | 19184 ft | 305 kts | 222° |
| 2026-05-01 15:20 | 51.39998 | 1.48994 | 19051 ft | 309 kts | 222° |
| 2026-05-01 15:20 | 51.38502 | 1.46531 | 18996 ft | 309 kts | 222° |
| 2026-05-01 15:20 | 51.37004 | 1.44066 | 18933 ft | 308 kts | 222° |
| 2026-05-01 15:21 | 51.35508 | 1.41607 | 18889 ft | 307 kts | 221° |
| 2026-05-01 15:21 | 51.34020 | 1.39162 | 18831 ft | 306 kts | 221° |
| 2026-05-01 15:21 | 51.32537 | 1.36729 | 18774 ft | 305 kts | 221° |
| 2026-05-01 15:21 | 51.31052 | 1.34294 | 18710 ft | 306 kts | 221° |
| 2026-05-01 15:22 | 51.28074 | 1.29419 | 18519 ft | 306 kts | 221° |
| 2026-05-01 15:22 | 51.26588 | 1.26991 | 18235 ft | 305 kts | 221° |
| 2026-05-01 15:22 | 51.25107 | 1.24572 | 17927 ft | 303 kts | 221° |
| 2026-05-01 15:23 | 51.23639 | 1.22177 | 17615 ft | 300 kts | 221° |
| 2026-05-01 15:23 | 51.22189 | 1.19815 | 17300 ft | 297 kts | 221° |
| 2026-05-01 15:23 | 51.20753 | 1.17477 | 16991 ft | 293 kts | 221° |
| 2026-05-01 15:23 | 51.19333 | 1.15167 | 16683 ft | 290 kts | 221° |
| 2026-05-01 15:24 | 51.17922 | 1.12873 | 16381 ft | 288 kts | 221° |
| 2026-05-01 15:24 | 51.16527 | 1.10609 | 16085 ft | 285 kts | 221° |
| 2026-05-01 15:24 | 51.15142 | 1.08364 | 15783 ft | 283 kts | 221° |
| 2026-05-01 15:24 | 51.13770 | 1.06139 | 15491 ft | 280 kts | 221° |
| 2026-05-01 15:25 | 51.12399 | 1.03920 | 15196 ft | 283 kts | 221° |
| 2026-05-01 15:25 | 51.11004 | 1.01663 | 14886 ft | 288 kts | 222° |
| 2026-05-01 15:25 | 51.09596 | 0.99385 | 14587 ft | 289 kts | 222° |
| 2026-05-01 15:25 | 51.08207 | 0.97142 | 14291 ft | 287 kts | 222° |
| 2026-05-01 15:26 | 51.06811 | 0.94888 | 13988 ft | 286 kts | 222° |
| 2026-05-01 15:26 | 51.05554 | 0.92446 | 13595 ft | 289 kts | 238° |
| 2026-05-01 15:26 | 51.04684 | 0.89560 | 13256 ft | 288 kts | 240° |
| 2026-05-01 15:26 | 51.03820 | 0.86704 | 12953 ft | 285 kts | 240° |
| 2026-05-01 15:27 | 51.02972 | 0.83883 | 12660 ft | 282 kts | 240° |
| 2026-05-01 15:27 | 51.02132 | 0.81081 | 12350 ft | 279 kts | 240° |
| 2026-05-01 15:27 | 51.01299 | 0.78301 | 12006 ft | 278 kts | 240° |
| 2026-05-01 15:28 | 50.99635 | 0.72745 | 11281 ft | 278 kts | 240° |
| 2026-05-01 15:28 | 50.98807 | 0.69986 | 10977 ft | 276 kts | 241° |
| 2026-05-01 15:28 | 50.97983 | 0.67243 | 10676 ft | 274 kts | 241° |
| 2026-05-01 15:29 | 50.96344 | 0.61799 | 10070 ft | 271 kts | 241° |
| 2026-05-01 15:29 | 50.95542 | 0.59139 | 9912 ft | 264 kts | 241° |
| 2026-05-01 15:29 | 50.93974 | 0.53947 | 9345 ft | 259 kts | 241° |
| 2026-05-01 15:30 | 50.92688 | 0.49696 | 8872 ft | 256 kts | 241° |
| 2026-05-01 15:31 | 50.92452 | 0.37913 | 7659 ft | 259 kts | 281° |
| 2026-05-01 15:31 | 50.93420 | 0.32460 | 7221 ft | 252 kts | 281° |
| 2026-05-01 15:32 | 50.94370 | 0.27249 | 6997 ft | 245 kts | 284° |
| 2026-05-01 15:32 | 50.96340 | 0.22580 | 6026 ft | 265 kts | 303° |
| 2026-05-01 15:33 | 50.99754 | 0.15619 | 4386 ft | 266 kts | 304° |
| 2026-05-01 15:34 | 51.04217 | 0.11772 | 3392 ft | 249 kts | 4° |